sensor_id;sensor_type;location;lat;lon;timestamp;P1;durP1;ratioP1;P2;durP2;ratioP2
39050;SDS011;24805;55.852;37.644;2023-05-07T00:04:24;8.50;;;4.63;;
39050;SDS011;24805;55.852;37.644;2023-05-07T00:09:26;9.32;;;3.97;;
39050;SDS011;24805;55.852;37.644;2023-05-07T00:14:29;6.63;;;3.80;;
39050;SDS011;24805;55.852;37.644;2023-05-07T00:19:31;6.63;;;4.07;;
39050;SDS011;24805;55.852;37.644;2023-05-07T00:24:33;7.38;;;4.25;;
39050;SDS011;24805;55.852;37.644;2023-05-07T00:29:36;10.35;;;4.20;;
39050;SDS011;24805;55.852;37.644;2023-05-07T00:34:38;8.57;;;4.88;;
39050;SDS011;24805;55.852;37.644;2023-05-07T00:39:41;7.90;;;4.57;;
39050;SDS011;24805;55.852;37.644;2023-05-07T00:44:43;7.22;;;4.20;;
39050;SDS011;24805;55.852;37.644;2023-05-07T00:49:45;7.10;;;4.13;;
39050;SDS011;24805;55.852;37.644;2023-05-07T00:54:47;7.60;;;3.90;;
39050;SDS011;24805;55.852;37.644;2023-05-07T00:59:50;8.68;;;3.72;;
39050;SDS011;24805;55.852;37.644;2023-05-07T01:04:53;7.93;;;4.30;;
39050;SDS011;24805;55.852;37.644;2023-05-07T01:09:58;4.50;;;3.30;;
39050;SDS011;24805;55.852;37.644;2023-05-07T01:15:01;5.38;;;2.78;;
39050;SDS011;24805;55.852;37.644;2023-05-07T01:20:05;6.68;;;3.75;;
39050;SDS011;24805;55.852;37.644;2023-05-07T01:25:09;8.07;;;3.55;;
39050;SDS011;24805;55.852;37.644;2023-05-07T01:30:16;10.02;;;4.50;;
39050;SDS011;24805;55.852;37.644;2023-05-07T01:35:22;7.85;;;4.00;;
39050;SDS011;24805;55.852;37.644;2023-05-07T01:40:28;10.05;;;4.20;;
39050;SDS011;24805;55.852;37.644;2023-05-07T01:45:30;7.53;;;4.05;;
39050;SDS011;24805;55.852;37.644;2023-05-07T01:50:34;7.68;;;4.43;;
39050;SDS011;24805;55.852;37.644;2023-05-07T01:55:37;7.75;;;4.03;;
39050;SDS011;24805;55.852;37.644;2023-05-07T02:00:39;7.60;;;4.00;;
39050;SDS011;24805;55.852;37.644;2023-05-07T02:05:42;6.32;;;3.47;;
39050;SDS011;24805;55.852;37.644;2023-05-07T02:11:05;4.65;;;3.03;;
39050;SDS011;24805;55.852;37.644;2023-05-07T02:16:09;7.00;;;3.25;;
39050;SDS011;24805;55.852;37.644;2023-05-07T02:21:13;6.75;;;3.30;;
39050;SDS011;24805;55.852;37.644;2023-05-07T02:26:15;6.25;;;3.40;;
39050;SDS011;24805;55.852;37.644;2023-05-07T02:31:17;4.32;;;2.72;;
39050;SDS011;24805;55.852;37.644;2023-05-07T02:36:20;6.10;;;2.92;;
39050;SDS011;24805;55.852;37.644;2023-05-07T02:41:31;4.83;;;2.87;;
39050;SDS011;24805;55.852;37.644;2023-05-07T02:46:33;4.63;;;3.35;;
39050;SDS011;24805;55.852;37.644;2023-05-07T02:51:40;5.05;;;3.08;;
39050;SDS011;24805;55.852;37.644;2023-05-07T02:56:48;4.88;;;3.08;;
39050;SDS011;24805;55.852;37.644;2023-05-07T03:01:50;4.93;;;3.08;;
39050;SDS011;24805;55.852;37.644;2023-05-07T03:06:52;6.03;;;2.70;;
39050;SDS011;24805;55.852;37.644;2023-05-07T03:11:54;6.25;;;3.28;;
39050;SDS011;24805;55.852;37.644;2023-05-07T03:16:57;5.72;;;3.00;;
39050;SDS011;24805;55.852;37.644;2023-05-07T03:21:59;5.03;;;3.35;;
39050;SDS011;24805;55.852;37.644;2023-05-07T03:27:02;5.05;;;2.85;;
39050;SDS011;24805;55.852;37.644;2023-05-07T03:32:04;4.97;;;2.67;;
39050;SDS011;24805;55.852;37.644;2023-05-07T03:37:07;4.53;;;2.75;;
39050;SDS011;24805;55.852;37.644;2023-05-07T03:42:10;5.55;;;3.00;;
39050;SDS011;24805;55.852;37.644;2023-05-07T03:47:12;5.80;;;3.47;;
39050;SDS011;24805;55.852;37.644;2023-05-07T03:52:15;4.95;;;2.90;;
39050;SDS011;24805;55.852;37.644;2023-05-07T03:57:17;3.95;;;2.63;;
39050;SDS011;24805;55.852;37.644;2023-05-07T04:02:19;5.20;;;2.17;;
39050;SDS011;24805;55.852;37.644;2023-05-07T04:07:22;4.20;;;2.25;;
39050;SDS011;24805;55.852;37.644;2023-05-07T04:12:25;4.72;;;3.10;;
39050;SDS011;24805;55.852;37.644;2023-05-07T04:17:27;7.05;;;2.90;;
39050;SDS011;24805;55.852;37.644;2023-05-07T04:22:30;3.53;;;2.55;;
39050;SDS011;24805;55.852;37.644;2023-05-07T04:27:32;5.85;;;3.20;;
39050;SDS011;24805;55.852;37.644;2023-05-07T04:32:35;5.28;;;2.17;;
39050;SDS011;24805;55.852;37.644;2023-05-07T04:37:40;5.13;;;2.13;;
39050;SDS011;24805;55.852;37.644;2023-05-07T04:42:43;3.58;;;2.08;;
39050;SDS011;24805;55.852;37.644;2023-05-07T04:47:45;3.70;;;2.17;;
39050;SDS011;24805;55.852;37.644;2023-05-07T04:52:48;3.15;;;1.90;;
39050;SDS011;24805;55.852;37.644;2023-05-07T04:57:51;3.88;;;2.10;;
39050;SDS011;24805;55.852;37.644;2023-05-07T05:02:54;2.10;;;1.63;;
39050;SDS011;24805;55.852;37.644;2023-05-07T05:07:57;3.58;;;1.80;;
39050;SDS011;24805;55.852;37.644;2023-05-07T05:13:00;2.25;;;1.55;;
39050;SDS011;24805;55.852;37.644;2023-05-07T05:18:02;3.13;;;1.70;;
39050;SDS011;24805;55.852;37.644;2023-05-07T05:23:05;1.55;;;0.90;;
39050;SDS011;24805;55.852;37.644;2023-05-07T05:28:08;3.33;;;0.80;;
39050;SDS011;24805;55.852;37.644;2023-05-07T05:33:10;2.60;;;0.70;;
39050;SDS011;24805;55.852;37.644;2023-05-07T05:38:12;1.25;;;0.60;;
39050;SDS011;24805;55.852;37.644;2023-05-07T05:43:15;5.13;;;0.95;;
39050;SDS011;24805;55.852;37.644;2023-05-07T05:48:17;1.98;;;0.60;;
39050;SDS011;24805;55.852;37.644;2023-05-07T05:53:20;2.45;;;0.63;;
39050;SDS011;24805;55.852;37.644;2023-05-07T05:58:22;2.05;;;0.63;;
39050;SDS011;24805;55.852;37.644;2023-05-07T06:03:30;1.23;;;0.68;;
39050;SDS011;24805;55.852;37.644;2023-05-07T06:08:38;2.70;;;0.88;;
39050;SDS011;24805;55.852;37.644;2023-05-07T06:13:40;3.20;;;0.40;;
39050;SDS011;24805;55.852;37.644;2023-05-07T06:18:42;1.20;;;0.60;;
39050;SDS011;24805;55.852;37.644;2023-05-07T06:23:48;0.90;;;0.50;;
39050;SDS011;24805;55.852;37.644;2023-05-07T06:28:51;1.88;;;0.60;;
39050;SDS011;24805;55.852;37.644;2023-05-07T06:33:53;1.45;;;0.60;;
39050;SDS011;24805;55.852;37.644;2023-05-07T06:39:00;2.15;;;0.40;;
39050;SDS011;24805;55.852;37.644;2023-05-07T06:44:03;2.28;;;0.70;;
39050;SDS011;24805;55.852;37.644;2023-05-07T06:49:16;2.28;;;0.70;;
39050;SDS011;24805;55.852;37.644;2023-05-07T06:54:19;2.42;;;0.65;;
39050;SDS011;24805;55.852;37.644;2023-05-07T06:59:23;1.13;;;0.50;;
39050;SDS011;24805;55.852;37.644;2023-05-07T07:04:25;1.67;;;0.50;;
39050;SDS011;24805;55.852;37.644;2023-05-07T07:09:35;1.45;;;0.40;;
39050;SDS011;24805;55.852;37.644;2023-05-07T07:14:39;2.25;;;0.60;;
39050;SDS011;24805;55.852;37.644;2023-05-07T07:19:41;0.73;;;0.40;;
39050;SDS011;24805;55.852;37.644;2023-05-07T07:24:44;2.65;;;0.40;;
39050;SDS011;24805;55.852;37.644;2023-05-07T07:29:49;2.85;;;0.30;;
39050;SDS011;24805;55.852;37.644;2023-05-07T07:34:52;0.80;;;0.30;;
39050;SDS011;24805;55.852;37.644;2023-05-07T07:39:54;2.30;;;0.40;;
39050;SDS011;24805;55.852;37.644;2023-05-07T07:44:57;2.30;;;0.50;;
39050;SDS011;24805;55.852;37.644;2023-05-07T07:50:04;1.33;;;0.50;;
39050;SDS011;24805;55.852;37.644;2023-05-07T07:55:07;1.13;;;0.40;;
39050;SDS011;24805;55.852;37.644;2023-05-07T08:00:11;1.00;;;0.20;;
39050;SDS011;24805;55.852;37.644;2023-05-07T08:05:19;1.55;;;0.30;;
39050;SDS011;24805;55.852;37.644;2023-05-07T08:10:22;1.90;;;0.30;;
39050;SDS011;24805;55.852;37.644;2023-05-07T08:15:30;1.20;;;0.50;;
39050;SDS011;24805;55.852;37.644;2023-05-07T08:20:33;1.27;;;0.45;;
39050;SDS011;24805;55.852;37.644;2023-05-07T08:25:43;0.55;;;0.20;;
39050;SDS011;24805;55.852;37.644;2023-05-07T08:30:45;1.08;;;0.40;;
39050;SDS011;24805;55.852;37.644;2023-05-07T08:35:48;2.47;;;0.30;;
39050;SDS011;24805;55.852;37.644;2023-05-07T08:40:50;3.55;;;0.50;;
39050;SDS011;24805;55.852;37.644;2023-05-07T08:45:54;1.20;;;0.30;;
39050;SDS011;24805;55.852;37.644;2023-05-07T08:51:02;1.33;;;0.60;;
39050;SDS011;24805;55.852;37.644;2023-05-07T08:56:05;1.73;;;0.30;;
39050;SDS011;24805;55.852;37.644;2023-05-07T09:01:09;0.60;;;0.40;;
39050;SDS011;24805;55.852;37.644;2023-05-07T09:06:15;0.95;;;0.52;;
39050;SDS011;24805;55.852;37.644;2023-05-07T09:11:19;0.50;;;0.30;;
39050;SDS011;24805;55.852;37.644;2023-05-07T09:16:28;3.58;;;0.52;;
39050;SDS011;24805;55.852;37.644;2023-05-07T09:21:33;0.98;;;0.52;;
39050;SDS011;24805;55.852;37.644;2023-05-07T09:26:38;1.48;;;0.43;;
39050;SDS011;24805;55.852;37.644;2023-05-07T09:31:42;2.25;;;0.50;;
39050;SDS011;24805;55.852;37.644;2023-05-07T09:36:48;1.52;;;0.45;;
39050;SDS011;24805;55.852;37.644;2023-05-07T09:41:51;2.38;;;0.70;;
39050;SDS011;24805;55.852;37.644;2023-05-07T09:47:06;1.50;;;0.30;;
39050;SDS011;24805;55.852;37.644;2023-05-07T09:52:15;0.95;;;0.40;;
39050;SDS011;24805;55.852;37.644;2023-05-07T09:57:23;1.95;;;0.52;;
39050;SDS011;24805;55.852;37.644;2023-05-07T10:02:30;1.40;;;1.05;;
39050;SDS011;24805;55.852;37.644;2023-05-07T10:07:34;1.33;;;0.40;;
39050;SDS011;24805;55.852;37.644;2023-05-07T10:12:41;2.40;;;0.60;;
39050;SDS011;24805;55.852;37.644;2023-05-07T10:17:49;0.80;;;0.30;;
39050;SDS011;24805;55.852;37.644;2023-05-07T10:22:55;2.55;;;0.30;;
39050;SDS011;24805;55.852;37.644;2023-05-07T10:28:08;1.75;;;0.50;;
39050;SDS011;24805;55.852;37.644;2023-05-07T10:33:16;0.98;;;0.45;;
39050;SDS011;24805;55.852;37.644;2023-05-07T10:38:21;2.13;;;0.73;;
39050;SDS011;24805;55.852;37.644;2023-05-07T10:43:23;2.85;;;0.70;;
39050;SDS011;24805;55.852;37.644;2023-05-07T10:48:31;1.33;;;0.50;;
39050;SDS011;24805;55.852;37.644;2023-05-07T10:53:41;1.48;;;0.70;;
39050;SDS011;24805;55.852;37.644;2023-05-07T10:58:51;1.55;;;0.68;;
39050;SDS011;24805;55.852;37.644;2023-05-07T11:04:14;0.95;;;0.65;;
39050;SDS011;24805;55.852;37.644;2023-05-07T11:15:44;3.35;;;1.08;;
39050;SDS011;24805;55.852;37.644;2023-05-07T11:20:58;1.08;;;0.50;;
39050;SDS011;24805;55.852;37.644;2023-05-07T11:26:15;0.43;;;0.30;;
39050;SDS011;24805;55.852;37.644;2023-05-07T11:31:23;2.20;;;0.52;;
39050;SDS011;24805;55.852;37.644;2023-05-07T11:36:30;0.90;;;0.50;;
39050;SDS011;24805;55.852;37.644;2023-05-07T11:41:35;1.35;;;0.30;;
39050;SDS011;24805;55.852;37.644;2023-05-07T11:46:42;1.08;;;0.50;;
39050;SDS011;24805;55.852;37.644;2023-05-07T11:51:45;1.65;;;0.40;;
39050;SDS011;24805;55.852;37.644;2023-05-07T11:56:48;2.15;;;0.70;;
39050;SDS011;24805;55.852;37.644;2023-05-07T12:01:50;0.88;;;0.57;;
39050;SDS011;24805;55.852;37.644;2023-05-07T12:06:55;2.67;;;1.73;;
39050;SDS011;24805;55.852;37.644;2023-05-07T12:11:58;1.15;;;0.57;;
39050;SDS011;24805;55.852;37.644;2023-05-07T12:17:05;0.85;;;0.40;;
39050;SDS011;24805;55.852;37.644;2023-05-07T12:22:09;0.70;;;0.50;;
39050;SDS011;24805;55.852;37.644;2023-05-07T12:27:15;3.92;;;1.13;;
39050;SDS011;24805;55.852;37.644;2023-05-07T12:32:19;2.63;;;0.65;;
39050;SDS011;24805;55.852;37.644;2023-05-07T12:37:23;1.35;;;0.75;;
39050;SDS011;24805;55.852;37.644;2023-05-07T12:42:32;2.00;;;0.70;;
39050;SDS011;24805;55.852;37.644;2023-05-07T12:47:37;2.53;;;0.68;;
39050;SDS011;24805;55.852;37.644;2023-05-07T12:52:40;3.30;;;0.50;;
39050;SDS011;24805;55.852;37.644;2023-05-07T12:57:42;4.10;;;0.65;;
39050;SDS011;24805;55.852;37.644;2023-05-07T13:02:49;2.13;;;0.70;;
39050;SDS011;24805;55.852;37.644;2023-05-07T13:07:54;1.90;;;0.50;;
39050;SDS011;24805;55.852;37.644;2023-05-07T13:12:56;0.85;;;0.57;;
39050;SDS011;24805;55.852;37.644;2023-05-07T13:17:59;2.75;;;0.70;;
39050;SDS011;24805;55.852;37.644;2023-05-07T13:23:01;3.50;;;0.70;;
39050;SDS011;24805;55.852;37.644;2023-05-07T13:28:03;2.88;;;0.38;;
39050;SDS011;24805;55.852;37.644;2023-05-07T13:33:12;0.77;;;0.57;;
39050;SDS011;24805;55.852;37.644;2023-05-07T13:38:14;2.03;;;0.60;;
39050;SDS011;24805;55.852;37.644;2023-05-07T13:43:17;1.05;;;0.50;;
39050;SDS011;24805;55.852;37.644;2023-05-07T13:48:21;1.70;;;0.75;;
39050;SDS011;24805;55.852;37.644;2023-05-07T13:53:23;2.10;;;0.70;;
39050;SDS011;24805;55.852;37.644;2023-05-07T13:58:25;2.10;;;0.60;;
39050;SDS011;24805;55.852;37.644;2023-05-07T14:08:29;1.60;;;0.70;;
39050;SDS011;24805;55.852;37.644;2023-05-07T14:13:32;1.67;;;0.80;;
39050;SDS011;24805;55.852;37.644;2023-05-07T14:18:36;4.60;;;0.65;;
39050;SDS011;24805;55.852;37.644;2023-05-07T14:23:41;3.15;;;0.50;;
39050;SDS011;24805;55.852;37.644;2023-05-07T14:33:48;2.13;;;0.80;;
39050;SDS011;24805;55.852;37.644;2023-05-07T14:38:54;3.45;;;0.65;;
39050;SDS011;24805;55.852;37.644;2023-05-07T14:43:56;3.03;;;0.80;;
39050;SDS011;24805;55.852;37.644;2023-05-07T14:49:01;2.50;;;0.50;;
39050;SDS011;24805;55.852;37.644;2023-05-07T14:54:03;3.58;;;0.85;;
39050;SDS011;24805;55.852;37.644;2023-05-07T15:09:10;4.30;;;0.80;;
39050;SDS011;24805;55.852;37.644;2023-05-07T15:19:14;4.18;;;0.93;;
39050;SDS011;24805;55.852;37.644;2023-05-07T15:24:17;3.08;;;0.80;;
39050;SDS011;24805;55.852;37.644;2023-05-07T15:29:20;4.05;;;0.77;;
39050;SDS011;24805;55.852;37.644;2023-05-07T15:34:22;5.57;;;1.00;;
39050;SDS011;24805;55.852;37.644;2023-05-07T15:39:25;3.78;;;0.60;;
39050;SDS011;24805;55.852;37.644;2023-05-07T15:44:27;0.90;;;0.47;;
39050;SDS011;24805;55.852;37.644;2023-05-07T15:49:33;3.67;;;0.73;;
39050;SDS011;24805;55.852;37.644;2023-05-07T15:54:35;2.97;;;0.80;;
39050;SDS011;24805;55.852;37.644;2023-05-07T15:59:39;3.60;;;0.90;;
39050;SDS011;24805;55.852;37.644;2023-05-07T16:09:43;3.27;;;0.87;;
39050;SDS011;24805;55.852;37.644;2023-05-07T16:14:45;3.28;;;1.35;;
39050;SDS011;24805;55.852;37.644;2023-05-07T16:19:48;4.72;;;1.05;;
39050;SDS011;24805;55.852;37.644;2023-05-07T16:24:51;1.83;;;1.00;;
39050;SDS011;24805;55.852;37.644;2023-05-07T16:34:56;4.05;;;1.10;;
39050;SDS011;24805;55.852;37.644;2023-05-07T16:40:01;3.28;;;0.90;;
39050;SDS011;24805;55.852;37.644;2023-05-07T16:45:08;3.97;;;1.10;;
39050;SDS011;24805;55.852;37.644;2023-05-07T16:50:10;3.05;;;0.80;;
39050;SDS011;24805;55.852;37.644;2023-05-07T17:00:14;2.42;;;1.33;;
39050;SDS011;24805;55.852;37.644;2023-05-07T17:05:17;3.65;;;1.10;;
39050;SDS011;24805;55.852;37.644;2023-05-07T17:10:20;3.35;;;1.20;;
39050;SDS011;24805;55.852;37.644;2023-05-07T17:15:22;3.63;;;1.75;;
39050;SDS011;24805;55.852;37.644;2023-05-07T17:25:27;5.45;;;1.63;;
39050;SDS011;24805;55.852;37.644;2023-05-07T17:35:31;4.75;;;2.08;;
39050;SDS011;24805;55.852;37.644;2023-05-07T17:40:34;3.63;;;1.48;;
39050;SDS011;24805;55.852;37.644;2023-05-07T17:50:38;4.85;;;1.95;;
39050;SDS011;24805;55.852;37.644;2023-05-07T18:05:44;7.80;;;1.60;;
39050;SDS011;24805;55.852;37.644;2023-05-07T18:10:47;4.75;;;1.40;;
39050;SDS011;24805;55.852;37.644;2023-05-07T18:20:51;4.35;;;1.80;;
39050;SDS011;24805;55.852;37.644;2023-05-07T18:30:55;6.50;;;1.85;;
39050;SDS011;24805;55.852;37.644;2023-05-07T18:41:02;4.57;;;1.90;;
39050;SDS011;24805;55.852;37.644;2023-05-07T18:46:05;4.10;;;1.73;;
39050;SDS011;24805;55.852;37.644;2023-05-07T18:51:07;7.72;;;2.33;;
39050;SDS011;24805;55.852;37.644;2023-05-07T18:56:13;7.07;;;2.03;;
39050;SDS011;24805;55.852;37.644;2023-05-07T19:06:17;3.95;;;2.28;;
39050;SDS011;24805;55.852;37.644;2023-05-07T19:11:19;7.88;;;2.40;;
39050;SDS011;24805;55.852;37.644;2023-05-07T19:16:22;4.90;;;2.05;;
39050;SDS011;24805;55.852;37.644;2023-05-07T19:21:24;4.85;;;2.20;;
39050;SDS011;24805;55.852;37.644;2023-05-07T19:26:26;7.40;;;2.58;;
39050;SDS011;24805;55.852;37.644;2023-05-07T19:31:28;3.78;;;2.10;;
39050;SDS011;24805;55.852;37.644;2023-05-07T19:36:31;6.22;;;2.20;;
39050;SDS011;24805;55.852;37.644;2023-05-07T19:41:35;7.22;;;2.50;;
39050;SDS011;24805;55.852;37.644;2023-05-07T19:46:37;3.67;;;2.05;;
39050;SDS011;24805;55.852;37.644;2023-05-07T19:51:41;4.10;;;2.17;;
39050;SDS011;24805;55.852;37.644;2023-05-07T20:01:45;4.93;;;1.98;;
39050;SDS011;24805;55.852;37.644;2023-05-07T20:11:49;5.07;;;2.33;;
39050;SDS011;24805;55.852;37.644;2023-05-07T20:16:51;3.50;;;2.00;;
39050;SDS011;24805;55.852;37.644;2023-05-07T20:26:55;5.65;;;2.17;;
39050;SDS011;24805;55.852;37.644;2023-05-07T20:36:59;8.10;;;2.90;;
39050;SDS011;24805;55.852;37.644;2023-05-07T20:42:02;10.18;;;2.80;;
39050;SDS011;24805;55.852;37.644;2023-05-07T20:47:04;6.20;;;2.85;;
39050;SDS011;24805;55.852;37.644;2023-05-07T20:52:06;5.32;;;3.17;;
39050;SDS011;24805;55.852;37.644;2023-05-07T20:57:09;8.15;;;3.70;;
39050;SDS011;24805;55.852;37.644;2023-05-07T21:02:11;5.80;;;2.90;;
39050;SDS011;24805;55.852;37.644;2023-05-07T21:07:13;6.68;;;3.50;;
39050;SDS011;24805;55.852;37.644;2023-05-07T21:17:17;12.10;;;3.97;;
39050;SDS011;24805;55.852;37.644;2023-05-07T21:22:19;6.85;;;3.40;;
39050;SDS011;24805;55.852;37.644;2023-05-07T21:27:21;6.05;;;3.30;;
39050;SDS011;24805;55.852;37.644;2023-05-07T21:32:24;6.32;;;3.20;;
39050;SDS011;24805;55.852;37.644;2023-05-07T21:37:26;8.48;;;3.60;;
39050;SDS011;24805;55.852;37.644;2023-05-07T21:42:28;9.00;;;3.58;;
39050;SDS011;24805;55.852;37.644;2023-05-07T21:47:30;8.55;;;3.28;;
39050;SDS011;24805;55.852;37.644;2023-05-07T21:52:32;11.35;;;3.83;;
39050;SDS011;24805;55.852;37.644;2023-05-07T21:57:34;6.38;;;3.30;;
39050;SDS011;24805;55.852;37.644;2023-05-07T22:02:38;7.35;;;3.83;;
39050;SDS011;24805;55.852;37.644;2023-05-07T22:07:40;8.48;;;4.82;;
39050;SDS011;24805;55.852;37.644;2023-05-07T22:12:42;15.55;;;5.28;;
39050;SDS011;24805;55.852;37.644;2023-05-07T22:17:44;17.08;;;5.60;;
39050;SDS011;24805;55.852;37.644;2023-05-07T22:22:51;15.32;;;5.45;;
39050;SDS011;24805;55.852;37.644;2023-05-07T22:27:54;20.30;;;6.05;;
39050;SDS011;24805;55.852;37.644;2023-05-07T22:32:56;14.10;;;4.50;;
39050;SDS011;24805;55.852;37.644;2023-05-07T22:37:59;12.20;;;5.18;;
39050;SDS011;24805;55.852;37.644;2023-05-07T22:43:01;14.65;;;5.78;;
39050;SDS011;24805;55.852;37.644;2023-05-07T22:48:03;12.35;;;5.90;;
39050;SDS011;24805;55.852;37.644;2023-05-07T22:53:05;12.50;;;5.75;;
39050;SDS011;24805;55.852;37.644;2023-05-07T22:58:07;17.20;;;6.22;;
39050;SDS011;24805;55.852;37.644;2023-05-07T23:03:09;12.90;;;6.57;;
39050;SDS011;24805;55.852;37.644;2023-05-07T23:08:12;14.27;;;6.72;;
39050;SDS011;24805;55.852;37.644;2023-05-07T23:13:14;17.88;;;6.72;;
39050;SDS011;24805;55.852;37.644;2023-05-07T23:18:18;17.95;;;7.13;;
39050;SDS011;24805;55.852;37.644;2023-05-07T23:23:20;17.30;;;6.07;;
39050;SDS011;24805;55.852;37.644;2023-05-07T23:28:22;14.20;;;6.05;;
39050;SDS011;24805;55.852;37.644;2023-05-07T23:33:24;12.18;;;5.38;;
39050;SDS011;24805;55.852;37.644;2023-05-07T23:38:26;9.82;;;4.80;;
39050;SDS011;24805;55.852;37.644;2023-05-07T23:43:28;17.13;;;6.05;;
39050;SDS011;24805;55.852;37.644;2023-05-07T23:48:31;17.10;;;5.88;;
39050;SDS011;24805;55.852;37.644;2023-05-07T23:53:33;12.18;;;6.32;;
39050;SDS011;24805;55.852;37.644;2023-05-07T23:58:35;20.95;;;6.22;;
